Time;durP1;ratioP1;P1;durP2;ratioP2;P2;SDS_P1;SDS_P2;PMS_P1;PMS_P2;Temp;Humidity;BMP_temperature;BMP_pressure;BME280_temperature;BME280_humidity;BME280_pressure;Samples;Min_cycle;Max_cycle;Signal;HPM_P1;HPM_P2
2021/04/14 00:03:29;;;;;;;9.45;5.58;;;;;;;4.41;94.69;101016.71;232948;1203;103120;-71
2021/04/14 00:08:32;;;;;;;8.90;5.60;;;;;;;4.30;93.98;101025.54;233112;1203;103219;-73
2021/04/14 00:13:42;;;;;;;8.70;5.80;;;;;;;4.33;95.13;101029.06;233006;1203;103213;-69
2021/04/14 00:18:45;;;;;;;9.20;5.10;;;;;;;4.40;93.60;101026.41;232994;1203;103143;-71
2021/04/14 00:23:47;;;;;;;6.30;4.85;;;;;;;4.40;93.40;101026.41;233413;1203;103153;-71
2021/04/14 00:28:49;;;;;;;7.43;5.33;;;;;;;4.42;95.42;101023.75;233137;1203;103213;-72
2021/04/14 00:33:51;;;;;;;6.70;4.63;;;;;;;4.38;94.62;101019.34;232964;1202;103136;-71
2021/04/14 00:38:52;;;;;;;9.07;5.50;;;;;;;4.31;94.52;101026.44;233125;1201;103299;-72
2021/04/14 00:43:53;;;;;;;9.68;6.13;;;;;;;4.11;94.64;101023.86;233356;1202;103233;-71
2021/04/14 00:48:55;;;;;;;9.15;5.80;;;;;;;4.12;95.94;101015.06;233041;1202;103571;-71
2021/04/14 00:53:57;;;;;;;7.70;5.50;;;;;;;4.07;96.98;100995.74;233079;1202;103578;-72
2021/04/14 00:58:58;;;;;;;8.80;5.60;;;;;;;4.06;97.91;100988.70;233085;1203;103136;-71
2021/04/14 01:04:00;;;;;;;8.38;5.93;;;;;;;4.03;97.30;101004.53;233607;1202;103210;-71
2021/04/14 01:09:02;;;;;;;11.85;5.80;;;;;;;4.13;97.34;101001.86;233069;1203;103542;-71
2021/04/14 01:14:03;;;;;;;7.05;5.33;;;;;;;4.23;97.62;101000.05;233059;1203;103191;-71
2021/04/14 01:19:05;;;;;;;7.73;5.53;;;;;;;4.27;98.73;100993.00;233100;1203;103220;-71
2021/04/14 01:24:12;;;;;;;9.27;6.40;;;;;;;4.19;97.97;100990.41;233131;1203;103629;-71
2021/04/14 01:29:14;;;;;;;10.23;6.00;;;;;;;4.13;99.10;100990.44;233269;1203;103113;-70
2021/04/14 01:34:17;;;;;;;7.10;5.77;;;;;;;4.06;99.30;100993.98;233127;1203;103213;-71
2021/04/14 01:39:19;;;;;;;10.93;6.30;;;;;;;3.92;99.59;100992.27;233079;1202;104525;-70
2021/04/14 01:44:20;;;;;;;7.97;5.73;;;;;;;3.89;100.00;100986.13;233071;1203;103219;-71
2021/04/14 01:49:21;;;;;;;9.25;5.15;;;;;;;3.96;100.00;100988.72;233013;1203;103158;-72
2021/04/14 01:54:23;;;;;;;8.90;6.37;;;;;;;4.02;100.00;100986.97;232881;1203;103289;-72
2021/04/14 01:59:24;;;;;;;8.95;5.25;;;;;;;3.99;100.00;100987.83;232886;1203;103248;-71
2021/04/14 02:04:26;;;;;;;10.20;5.90;;;;;;;3.92;100.00;100981.72;232859;1202;103216;-71
2021/04/14 02:09:27;;;;;;;7.20;5.80;;;;;;;3.86;100.00;100976.46;232916;1203;103206;-72
2021/04/14 02:14:29;;;;;;;8.25;5.38;;;;;;;3.79;100.00;100980.00;232867;1203;103207;-70
2021/04/14 02:19:30;;;;;;;9.20;5.55;;;;;;;3.77;100.00;100979.98;232835;1202;103309;-71
2021/04/14 02:24:31;;;;;;;6.78;5.00;;;;;;;3.77;100.00;100979.11;232843;1203;103248;-71
2021/04/14 02:29:33;;;;;;;7.90;4.70;;;;;;;3.85;100.00;100973.80;232834;1202;103194;-71
2021/04/14 02:34:34;;;;;;;7.55;4.10;;;;;;;3.88;100.00;100974.67;233011;1202;103188;-71
2021/04/14 02:39:36;;;;;;;7.25;4.45;;;;;;;3.82;100.00;100979.97;232923;1202;103212;-72
2021/04/14 02:44:37;;;;;;;8.23;4.58;;;;;;;3.79;100.00;100964.17;232876;1203;103591;-71
2021/04/14 02:49:39;;;;;;;7.70;3.97;;;;;;;3.74;100.00;100965.92;232946;1203;103136;-72
2021/04/14 02:54:40;;;;;;;8.73;4.33;;;;;;;3.67;100.00;100963.31;233069;1202;103494;-71
2021/04/14 02:59:42;;;;;;;8.50;3.95;;;;;;;3.67;100.00;100959.80;232994;1203;103520;-73
2021/04/14 03:04:43;;;;;;;5.77;3.77;;;;;;;3.78;100.00;100965.05;233068;1203;103193;-71
2021/04/14 03:09:45;;;;;;;7.93;3.70;;;;;;;3.78;100.00;100962.41;232992;1203;103594;-72
2021/04/14 03:14:46;;;;;;;5.88;3.40;;;;;;;3.77;99.17;100963.29;232875;1203;103220;-71
2021/04/14 03:19:48;;;;;;;8.80;4.30;;;;;;;3.74;99.95;100961.55;232889;1203;103213;-69
2021/04/14 03:24:49;;;;;;;6.43;4.17;;;;;;;3.63;100.00;100960.70;232916;1203;103143;-71
2021/04/14 03:29:51;;;;;;;5.55;3.65;;;;;;;3.63;99.94;100953.66;232924;1202;103217;-71
2021/04/14 03:34:52;;;;;;;7.00;3.85;;;;;;;3.62;100.00;100962.45;233097;1203;103255;-71
2021/04/14 03:39:54;;;;;;;8.38;4.58;;;;;;;3.55;100.00;100971.25;233029;1203;103181;-71
2021/04/14 03:44:57;;;;;;;8.70;3.60;;;;;;;3.58;100.00;100960.72;232992;1202;103565;-72
2021/04/14 03:49:59;;;;;;;8.03;3.40;;;;;;;3.56;100.00;100956.33;233093;1203;103209;-70
2021/04/14 03:55:00;;;;;;;6.35;3.20;;;;;;;3.58;100.00;100962.45;233029;1202;103213;-71
2021/04/14 04:00:08;;;;;;;10.00;3.70;;;;;;;3.55;100.00;100954.56;232780;1202;104681;-71
2021/04/14 04:05:11;;;;;;;7.57;3.80;;;;;;;3.50;100.00;100958.07;232880;1201;103204;-71
2021/04/14 04:10:13;;;;;;;7.50;3.40;;;;;;;3.44;100.00;100960.72;232989;1203;103593;-72
2021/04/14 04:15:14;;;;;;;14.13;4.00;;;;;;;3.44;100.00;100973.04;232888;1203;103143;-69
2021/04/14 04:20:16;;;;;;;7.95;3.30;;;;;;;3.53;100.00;100972.14;232856;1203;103221;-69
2021/04/14 04:25:17;;;;;;;9.20;3.35;;;;;;;3.64;100.00;100980.89;232887;1202;103178;-71
2021/04/14 04:30:20;;;;;;;8.30;3.20;;;;;;;3.58;100.00;100986.18;232921;1203;103140;-71
2021/04/14 04:35:22;;;;;;;8.73;3.40;;;;;;;3.37;100.00;100985.33;232952;1203;103174;-70
2021/04/14 04:40:25;;;;;;;12.87;3.37;;;;;;;3.25;100.00;100988.84;232935;1203;103214;-71
2021/04/14 04:45:29;;;;;;;8.20;2.70;;;;;;;3.26;100.00;100989.74;232980;1203;103172;-71
2021/04/14 04:50:33;;;;;;;5.20;2.40;;;;;;;3.34;100.00;100994.13;233255;1203;103223;-70
2021/04/14 04:55:35;;;;;;;7.33;2.83;;;;;;;3.32;100.00;101000.28;232967;1203;103206;-72
2021/04/14 05:00:37;;;;;;;8.50;3.38;;;;;;;3.17;100.00;101002.03;232899;1202;103206;-72
2021/04/14 05:05:39;;;;;;;6.10;2.20;;;;;;;3.10;100.00;100999.41;232945;1202;103171;-72
2021/04/14 05:10:41;;;;;;;10.20;5.50;;;;;;;3.12;100.00;101009.06;233238;1203;103213;-71
2021/04/14 05:15:43;;;;;;;6.60;2.50;;;;;;;3.08;100.00;101011.69;232990;1202;103207;-71
2021/04/14 05:20:45;;;;;;;9.90;2.83;;;;;;;3.00;100.00;101020.46;232925;1203;103307;-71
2021/04/14 05:25:47;;;;;;;6.75;2.50;;;;;;;2.95;100.00;101016.95;232894;1202;103223;-71
2021/04/14 05:30:48;;;;;;;8.43;3.53;;;;;;;3.00;100.00;101012.56;232899;1203;103845;-72
2021/04/14 05:35:51;;;;;;;7.63;3.27;;;;;;;3.03;100.00;101017.81;233575;1203;103600;-71
2021/04/14 05:40:52;;;;;;;12.30;2.70;;;;;;;2.98;100.00;101009.03;232867;1203;103296;-71
2021/04/14 05:46:10;;;;;;;8.23;2.98;;;;;;;2.92;100.00;101006.40;232964;1203;103194;-72
2021/04/14 05:51:17;;;;;;;5.95;2.95;;;;;;;2.91;100.00;101004.64;232784;1176;114449;-75
2021/04/14 05:56:21;;;;;;;7.55;3.80;;;;;;;2.96;100.00;100996.75;233100;1176;114531;-74
2021/04/14 06:01:26;;;;;;;7.03;2.80;;;;;;;2.89;100.00;101002.88;233300;1177;114919;-72
2021/04/14 06:06:28;;;;;;;3.15;1.70;;;;;;;2.75;100.00;101003.73;233450;1177;114711;-73
2021/04/14 06:11:30;;;;;;;5.10;1.95;;;;;;;2.70;100.00;100998.46;233102;1176;114573;-71
2021/04/14 06:16:32;;;;;;;4.17;1.80;;;;;;;2.69;100.00;101003.73;232422;1176;114516;-70
2021/04/14 06:21:34;;;;;;;6.40;1.70;;;;;;;2.50;100.00;101013.33;232425;1176;114371;-72
2021/04/14 06:26:48;;;;;;;6.57;2.13;;;;;;;2.32;100.00;101004.51;233013;1176;114865;-73
2021/04/14 06:31:52;;;;;;;5.00;2.30;;;;;;;2.33;100.00;101019.39;233028;1176;114469;-73
2021/04/14 06:36:57;;;;;;;5.93;2.27;;;;;;;2.33;100.00;101016.77;233458;1176;114335;-75
2021/04/14 06:42:09;;;;;;;5.90;2.63;;;;;;;2.23;100.00;101014.98;233632;1176;114368;-72
2021/04/14 06:47:20;;;;;;;6.05;2.05;;;;;;;2.32;100.00;101015.03;233090;1177;114584;-74
2021/04/14 06:52:30;;;;;;;4.10;2.20;;;;;;;2.43;100.00;101011.55;232921;1177;114526;-74
2021/04/14 06:57:37;;;;;;;6.90;3.00;;;;;;;2.45;100.00;101009.80;233164;1176;114554;-72
2021/04/14 07:02:45;;;;;;;6.00;2.30;;;;;;;2.47;100.00;101008.94;233422;1176;115022;-72
2021/04/14 07:07:51;;;;;;;7.37;2.57;;;;;;;2.41;100.00;101008.02;233460;1177;114340;-72
2021/04/14 07:12:58;;;;;;;5.87;2.63;;;;;;;2.53;100.00;101008.09;233218;1177;114638;-72
2021/04/14 07:18:20;;;;;;;6.30;1.75;;;;;;;2.37;100.00;101008.03;233553;1176;115032;-73
2021/04/14 07:23:44;;;;;;;5.67;2.03;;;;;;;2.58;100.00;101005.44;233212;1176;114429;-72
2021/04/14 07:29:07;;;;;;;6.18;1.93;;;;;;;2.25;100.00;101002.73;232565;1177;115011;-72
2021/04/14 07:34:35;;;;;;;5.00;2.10;;;;;;;2.21;100.00;101006.20;232642;1177;114708;-71
2021/04/14 07:40:02;;;;;;;6.23;1.90;;;;;;;2.44;100.00;101011.54;233631;1176;114327;-71
2021/04/14 07:45:07;;;;;;;5.20;1.63;;;;;;;2.59;100.00;101004.57;232937;1176;114480;-72
2021/04/14 07:50:10;;;;;;;5.85;2.03;;;;;;;2.49;100.00;100996.67;232754;1176;114581;-71
2021/04/14 07:55:32;;;;;;;6.07;2.43;;;;;;;2.49;100.00;100986.14;232905;1176;114452;-76
2021/04/14 08:00:39;;;;;;;4.95;1.90;;;;;;;2.64;100.00;100982.66;233022;1177;114525;-75
2021/04/14 08:05:41;;;;;;;9.40;1.85;;;;;;;2.52;100.00;100995.80;233318;1176;114611;-73
2021/04/14 08:10:58;;;;;;;2.90;1.80;;;;;;;2.62;100.00;100987.03;233293;1177;114818;-73
2021/04/14 08:16:08;;;;;;;3.80;1.60;;;;;;;2.62;100.00;100978.27;232945;1176;115172;-75
2021/04/14 08:21:24;;;;;;;4.85;2.10;;;;;;;2.47;100.00;100992.25;233079;1177;114505;-75
2021/04/14 08:26:29;;;;;;;2.63;2.13;;;;;;;2.47;100.00;100986.98;233159;1176;114465;-74
2021/04/14 08:31:49;;;;;;;6.68;2.90;;;;;;;2.51;100.00;100988.77;232485;1177;114662;-77
2021/04/14 08:36:52;;;;;;;7.10;2.43;;;;;;;2.64;100.00;100973.89;233336;1176;114671;-78
2021/04/14 08:42:15;;;;;;;5.17;2.93;;;;;;;2.59;100.00;100976.52;233377;1176;114680;-73
2021/04/14 08:47:31;;;;;;;6.10;2.80;;;;;;;2.71;100.00;100967.77;233046;1176;114718;-74
2021/04/14 08:52:35;;;;;;;6.00;2.18;;;;;;;2.47;100.00;100969.45;233026;1176;114454;-75
2021/04/14 08:57:36;;;;;;;3.58;2.55;;;;;;;2.54;100.00;100962.44;233483;1176;114561;-72
2021/04/14 09:02:41;;;;;;;6.05;2.70;;;;;;;2.59;100.00;100963.35;233384;1176;114305;-73
2021/04/14 09:07:43;;;;;;;4.80;2.03;;;;;;;2.56;100.00;100960.70;233108;1170;114331;-74
2021/04/14 09:12:50;;;;;;;6.27;2.77;;;;;;;2.63;100.00;100962.47;233044;1177;114555;-75
2021/04/14 09:18:05;;;;;;;5.33;2.70;;;;;;;2.85;100.00;100957.23;233290;1176;115067;-75
2021/04/14 09:23:15;;;;;;;5.78;3.03;;;;;;;2.99;100.00;100955.48;233192;1176;114703;-75
2021/04/14 09:28:43;;;;;;;4.37;2.90;;;;;;;3.02;100.00;100957.23;233084;1177;114635;-74
2021/04/14 09:33:53;;;;;;;5.60;2.60;;;;;;;3.05;100.00;100943.19;232833;1177;114610;-75
2021/04/14 09:39:07;;;;;;;3.03;2.50;;;;;;;2.96;100.00;100950.20;233432;1176;114507;-73
2021/04/14 09:44:16;;;;;;;7.40;3.10;;;;;;;2.86;100.00;100945.83;233184;1176;114614;-74
2021/04/14 09:49:34;;;;;;;3.40;2.70;;;;;;;2.92;100.00;100948.45;233215;1177;114769;-74
2021/04/14 09:54:37;;;;;;;7.63;4.15;;;;;;;3.02;100.00;100944.06;233050;1177;114605;-73
2021/04/14 09:59:42;;;;;;;5.10;3.20;;;;;;;2.92;100.00;100943.19;233198;1177;114560;-76
2021/04/14 10:04:46;;;;;;;;;;;;;;;2.91;100.00;100946.70;233693;1176;114821;-76
2021/04/14 10:09:49;;;;;;;4.23;3.08;;;;;;;2.77;100.00;100937.91;233613;1176;103222;-71
2021/04/14 10:14:54;;;;;;;3.80;2.87;;;;;;;2.89;100.00;100937.91;232949;1177;114541;-74
2021/04/14 10:20:10;;;;;;;4.07;3.03;;;;;;;2.81;100.00;100944.95;233368;1176;114568;-73
2021/04/14 10:25:22;;;;;;;6.65;3.95;;;;;;;2.89;100.00;100942.31;233617;1177;114300;-76
2021/04/14 10:30:25;;;;;;;3.80;3.40;;;;;;;2.80;100.00;100941.42;233114;1176;114412;-71
2021/04/14 10:35:27;;;;;;;5.33;3.43;;;;;;;2.77;100.00;100944.08;233419;1177;114355;-75
2021/04/14 10:40:33;;;;;;;6.68;3.85;;;;;;;3.00;100.00;100941.45;232947;1176;114770;-73
2021/04/14 10:45:34;;;;;;;6.40;3.80;;;;;;;2.94;100.00;100940.55;233871;1177;114978;-75
2021/04/14 10:50:36;;;;;;;5.48;3.20;;;;;;;3.00;100.00;100935.28;233112;1177;114637;-74
2021/04/14 10:55:41;;;;;;;6.20;3.87;;;;;;;3.10;100.00;100931.78;233333;1176;114745;-74
2021/04/14 11:00:47;;;;;;;6.63;4.40;;;;;;;3.20;100.00;100927.38;233222;1177;115060;-72
2021/04/14 11:05:55;;;;;;;6.58;4.10;;;;;;;3.14;100.00;100922.12;233072;1176;114769;-72
2021/04/14 11:10:59;;;;;;;6.30;3.23;;;;;;;2.85;100.00;100923.00;233951;1176;114559;-75
2021/04/14 11:16:02;;;;;;;5.55;3.85;;;;;;;2.94;100.00;100925.64;233484;1177;117555;-72
2021/04/14 11:26:12;;;;;;;3.70;3.10;;;;;;;2.79;100.00;100921.23;232629;1176;114437;-72
2021/04/14 11:31:34;;;;;;;5.80;3.58;;;;;;;2.92;100.00;100927.39;233442;1177;114410;-75
2021/04/14 11:36:36;;;;;;;6.40;4.35;;;;;;;3.10;100.00;100933.55;233655;1176;114334;-76
2021/04/14 11:41:47;;;;;;;5.35;3.70;;;;;;;3.11;100.00;100922.11;233804;1176;115357;-76
2021/04/14 11:47:00;;;;;;;7.13;3.30;;;;;;;3.02;100.00;100925.63;233608;1177;114791;-77
2021/04/14 11:52:30;;;;;;;4.10;3.28;;;;;;;3.09;100.00;100900.17;233952;1177;114823;-79
2021/04/14 11:57:32;;;;;;;5.63;3.60;;;;;;;3.16;100.00;100901.92;233490;1176;114414;-76
2021/04/14 12:02:39;;;;;;;2.90;2.00;;;;;;;2.99;100.00;100913.34;233148;1176;114665;-74
2021/04/14 12:07:41;;;;;;;5.05;3.20;;;;;;;3.08;100.00;100907.19;233278;1177;114769;-75
2021/04/14 12:12:42;;;;;;;4.95;3.70;;;;;;;3.21;100.00;100897.52;233145;1176;114658;-77
2021/04/14 12:17:44;;;;;;;3.60;3.25;;;;;;;3.20;100.00;100901.03;233643;1177;115030;-76
2021/04/14 12:22:46;;;;;;;3.20;2.60;;;;;;;3.37;100.00;100895.72;233766;1176;114984;-75
2021/04/14 12:27:47;;;;;;;4.50;2.10;;;;;;;3.47;100.00;100899.21;233142;1177;114930;-74
2021/04/14 12:32:49;;;;;;;5.30;2.75;;;;;;;3.38;100.00;100893.98;233302;1176;114792;-76
2021/04/14 12:37:51;;;;;;;3.57;2.67;;;;;;;3.27;100.00;100897.50;233560;1177;114258;-77
2021/04/14 12:42:53;;;;;;;4.57;3.03;;;;;;;3.32;100.00;100893.09;233367;1177;114366;-76
2021/04/14 12:47:55;;;;;;;3.73;3.00;;;;;;;3.48;100.00;100890.42;233300;1176;115850;-76
2021/04/14 12:52:59;;;;;;;4.50;3.55;;;;;;;3.53;100.00;100887.78;233311;1176;114889;-75
2021/04/14 12:58:00;;;;;;;7.43;3.23;;;;;;;3.34;100.00;100886.07;233011;1177;114772;-76
2021/04/14 13:03:17;;;;;;;5.47;3.00;;;;;;;3.47;100.00;100880.76;233202;1176;114797;-74
2021/04/14 13:08:27;;;;;;;4.50;3.10;;;;;;;3.41;100.00;100883.41;232829;1176;115169;-73
2021/04/14 13:13:29;;;;;;;4.97;3.00;;;;;;;3.38;100.00;100878.17;232816;1177;115565;-73
2021/04/14 13:18:33;;;;;;;5.78;3.63;;;;;;;3.34;100.00;100878.16;232502;1176;114563;-72
2021/04/14 13:24:00;;;;;;;4.25;3.18;;;;;;;3.43;100.00;100876.39;233050;1177;114447;-74
2021/04/14 13:29:11;;;;;;;3.78;2.80;;;;;;;3.50;100.00;100872.86;233063;1177;115202;-73
2021/04/14 13:34:27;;;;;;;3.40;3.10;;;;;;;3.55;100.00;100876.34;232909;1176;114398;-74
2021/04/14 13:39:35;;;;;;;3.23;2.80;;;;;;;3.53;100.00;100875.47;232922;1176;114605;-73
2021/04/14 13:45:03;;;;;;;3.80;2.77;;;;;;;3.61;100.00;100868.41;233160;1176;114852;-74
2021/04/14 13:50:27;;;;;;;5.20;3.20;;;;;;;3.62;100.00;100864.03;232988;1176;114466;-74
2021/04/14 13:55:29;;;;;;;4.33;3.60;;;;;;;3.60;100.00;100860.52;233913;1176;114461;-75
2021/04/14 14:00:39;;;;;;;6.27;3.60;;;;;;;3.53;100.00;100850.88;233317;1176;114847;-72
2021/04/14 14:05:41;;;;;;;5.55;4.30;;;;;;;3.56;100.00;100856.16;233341;1176;114824;-72
2021/04/14 14:11:03;;;;;;;3.93;3.03;;;;;;;3.66;100.00;100853.44;232796;1176;114742;-72
2021/04/14 14:16:08;;;;;;;3.28;2.90;;;;;;;3.51;100.00;100858.80;233312;1177;114507;-72
2021/04/14 14:21:15;;;;;;;4.55;3.90;;;;;;;3.40;100.00;100850.92;233123;1176;114230;-74
2021/04/14 14:26:22;;;;;;;9.00;8.20;;;;;;;3.39;100.00;100850.91;233891;1176;114240;-74
2021/04/14 14:31:25;;;;;;;9.07;8.23;;;;;;;3.40;100.00;100850.03;232668;1176;114780;-72
2021/04/14 14:36:41;;;;;;;7.60;6.90;;;;;;;3.29;100.00;100848.32;232427;1176;114628;-73
2021/04/14 14:41:48;;;;;;;5.07;4.57;;;;;;;3.35;100.00;100856.20;232418;1177;114620;-73
2021/04/14 14:46:52;;;;;;;3.75;3.40;;;;;;;3.24;100.00;100851.84;232728;1177;114589;-72
2021/04/14 14:51:54;;;;;;;3.20;2.90;;;;;;;3.32;100.00;100858.83;233256;1176;115602;-72
2021/04/14 14:57:05;;;;;;;3.85;3.45;;;;;;;3.34;100.00;100849.17;233220;1176;114858;-72
2021/04/14 15:02:21;;;;;;;5.15;3.90;;;;;;;3.28;100.00;100851.83;232829;1176;114407;-74
2021/04/14 15:07:25;;;;;;;4.60;3.40;;;;;;;3.27;100.00;100855.34;233175;1176;114766;-75
2021/04/14 15:12:27;;;;;;;4.28;3.55;;;;;;;3.34;100.00;100857.08;233131;1170;114667;-73
2021/04/14 15:17:28;;;;;;;4.67;3.90;;;;;;;3.23;100.00;100858.88;233116;1176;114692;-72
2021/04/14 15:22:33;;;;;;;5.13;3.83;;;;;;;3.22;100.00;100848.32;233115;1177;114481;-72
2021/04/14 15:27:40;;;;;;;4.58;3.50;;;;;;;3.10;100.00;100851.88;232655;1176;114927;-72
2021/04/14 15:32:45;;;;;;;3.55;3.15;;;;;;;3.17;100.00;100849.22;232980;1177;114924;-71
2021/04/14 15:37:55;;;;;;;4.77;4.10;;;;;;;3.16;100.00;100846.59;232755;1176;114937;-73
2021/04/14 15:42:59;;;;;;;3.50;2.90;;;;;;;3.11;100.00;100848.34;233294;1177;114776;-72
2021/04/14 15:48:03;;;;;;;3.75;2.73;;;;;;;3.02;100.00;100855.41;232704;1177;114995;-75
2021/04/14 15:53:07;;;;;;;3.37;3.07;;;;;;;3.02;100.00;100850.14;234141;1176;114791;-72
2021/04/14 15:58:10;;;;;;;5.00;4.13;;;;;;;3.08;100.00;100848.37;235467;1176;114585;-74
2021/04/14 16:03:14;;;;;;;5.13;3.55;;;;;;;2.95;100.00;100850.13;233390;1176;114395;-74
2021/04/14 16:08:17;;;;;;;5.50;3.40;;;;;;;2.84;100.00;100842.24;233252;1177;114599;-73
2021/04/14 16:13:19;;;;;;;3.80;2.80;;;;;;;2.93;100.00;100849.25;233287;1176;114712;-71
2021/04/14 16:18:21;;;;;;;4.50;4.10;;;;;;;2.93;100.00;100844.88;232920;1176;114205;-74
2021/04/14 16:23:23;;;;;;;4.73;4.27;;;;;;;2.87;100.00;100834.36;232948;1177;114720;-73
2021/04/14 16:28:25;;;;;;;7.25;3.50;;;;;;;2.74;100.00;100828.21;232697;1177;114657;-74
2021/04/14 16:33:28;;;;;;;3.60;3.20;;;;;;;2.77;100.00;100835.23;233036;1177;114479;-73
2021/04/14 16:38:29;;;;;;;5.70;4.03;;;;;;;2.80;100.00;100835.23;233403;1177;114549;-72
2021/04/14 16:43:35;;;;;;;5.20;3.90;;;;;;;2.69;100.00;100829.98;233166;1177;114736;-73
2021/04/14 16:48:37;;;;;;;4.13;3.57;;;;;;;2.66;100.00;100841.39;233267;1176;114885;-74
2021/04/14 16:53:38;;;;;;;5.03;4.43;;;;;;;2.71;100.00;100844.03;233256;1177;115073;-72
2021/04/14 16:58:40;;;;;;;7.75;5.50;;;;;;;2.70;100.00;100851.03;232992;1177;114257;-73
2021/04/14 17:03:41;;;;;;;7.10;5.10;;;;;;;2.65;100.00;100841.38;232759;1177;114271;-73
2021/04/14 17:08:43;;;;;;;6.90;4.60;;;;;;;2.63;100.00;100838.75;233245;1177;114637;-73
2021/04/14 17:13:45;;;;;;;6.33;5.27;;;;;;;2.63;100.00;100836.11;233286;1176;114593;-72
2021/04/14 17:18:47;;;;;;;6.80;4.80;;;;;;;2.54;100.00;100838.73;233498;1176;114278;-73
2021/04/14 17:23:49;;;;;;;5.28;4.65;;;;;;;2.60;100.00;100840.50;232976;1176;114588;-72
2021/04/14 17:28:51;;;;;;;6.58;4.90;;;;;;;2.70;100.00;100834.38;233361;1177;114686;-72
2021/04/14 17:33:53;;;;;;;7.23;5.40;;;;;;;2.73;100.00;100841.39;232904;1176;114655;-73
2021/04/14 17:38:54;;;;;;;6.73;5.40;;;;;;;2.66;100.00;100845.76;232561;1177;114536;-74
2021/04/14 17:43:56;;;;;;;6.80;5.40;;;;;;;2.67;100.00;100845.78;233181;1176;114800;-71
2021/04/14 17:48:57;;;;;;;8.93;5.60;;;;;;;2.71;100.00;100852.79;232901;1177;114966;-74
2021/04/14 17:54:00;;;;;;;5.90;4.67;;;;;;;2.71;100.00;100844.89;233256;1177;114297;-71
2021/04/14 17:59:03;;;;;;;7.50;4.90;;;;;;;2.65;100.00;100855.42;233441;1177;115709;-74
2021/04/14 18:04:04;;;;;;;4.83;3.20;;;;;;;2.67;100.00;100848.42;232886;1176;114847;-72
2021/04/14 18:09:06;;;;;;;4.75;3.60;;;;;;;2.71;100.00;100854.56;233546;1177;114547;-71
2021/04/14 18:14:07;;;;;;;8.40;5.15;;;;;;;2.66;100.00;100849.29;233419;1176;114872;-72
2021/04/14 18:19:09;;;;;;;5.30;3.40;;;;;;;2.64;100.00;100858.93;233499;1176;114614;-72
2021/04/14 18:24:11;;;;;;;5.50;3.80;;;;;;;2.72;100.00;100858.92;233532;1176;114322;-73
2021/04/14 18:29:13;;;;;;;5.10;4.03;;;;;;;2.73;100.00;100846.66;233415;1176;114705;-72
2021/04/14 18:34:15;;;;;;;8.33;4.95;;;;;;;2.62;100.00;100849.28;233508;1176;114620;-74
2021/04/14 18:39:20;;;;;;;7.45;5.15;;;;;;;2.64;100.00;100847.54;233252;1177;114822;-73
2021/04/14 18:44:22;;;;;;;6.80;5.30;;;;;;;2.68;100.00;100844.88;233066;1177;114814;-73
2021/04/14 18:49:27;;;;;;;5.90;4.50;;;;;;;2.71;100.00;100850.16;233369;1177;114520;-75
2021/04/14 18:54:29;;;;;;;7.93;4.90;;;;;;;2.67;100.00;100844.89;233470;1177;114575;-72
2021/04/14 18:59:30;;;;;;;6.38;4.68;;;;;;;2.65;100.00;100839.63;233443;1177;114414;-72
2021/04/14 19:04:32;;;;;;;7.90;5.50;;;;;;;2.73;100.00;100836.13;233312;1177;114620;-72
2021/04/14 19:09:34;;;;;;;9.20;5.20;;;;;;;2.73;100.00;100833.48;233357;1177;115033;-72
2021/04/14 19:14:35;;;;;;;10.90;6.63;;;;;;;2.69;100.00;100827.34;233078;1176;114335;-74
2021/04/14 19:19:37;;;;;;;10.05;6.63;;;;;;;2.64;100.00;100835.24;233159;1177;114766;-73
2021/04/14 19:24:38;;;;;;;11.45;6.60;;;;;;;2.67;100.00;100822.09;233177;1176;115078;-72
2021/04/14 19:29:40;;;;;;;12.15;6.90;;;;;;;2.66;100.00;100824.70;232980;1176;115167;-72
2021/04/14 19:34:42;;;;;;;7.90;5.60;;;;;;;2.52;100.00;100828.22;232691;1177;114718;-74
2021/04/14 19:39:43;;;;;;;6.73;4.80;;;;;;;2.55;100.00;100825.59;233233;1176;114927;-73
2021/04/14 19:44:45;;;;;;;6.53;4.87;;;;;;;2.55;100.00;100830.86;233201;1177;115039;-73
2021/04/14 19:49:46;;;;;;;10.63;6.17;;;;;;;2.55;100.00;100824.70;233205;1176;114378;-72
2021/04/14 19:54:48;;;;;;;8.03;5.60;;;;;;;2.55;100.00;100827.34;232771;1177;114652;-72
2021/04/14 19:59:50;;;;;;;8.25;5.20;;;;;;;2.60;100.00;100817.70;232560;1177;114564;-71
2021/04/14 20:04:51;;;;;;;8.03;5.23;;;;;;;2.58;100.00;100808.92;232980;1170;114562;-73
2021/04/14 20:09:53;;;;;;;7.15;5.05;;;;;;;2.51;100.00;100815.06;232743;1176;114171;-76
2021/04/14 20:14:54;;;;;;;8.48;5.85;;;;;;;2.47;100.00;100814.19;233740;1203;103208;-74
2021/04/14 20:19:56;;;;;;;7.10;4.80;;;;;;;2.50;100.00;100815.94;233604;1203;103245;-73
2021/04/14 20:24:57;;;;;;;6.50;5.30;;;;;;;2.46;100.00;100806.30;233638;1203;103644;-73
2021/04/14 20:29:59;;;;;;;5.90;4.50;;;;;;;2.44;100.00;100805.42;233600;1203;103216;-73
2021/04/14 20:35:01;;;;;;;5.98;4.83;;;;;;;2.51;100.00;100797.51;233572;1201;103278;-72
2021/04/14 20:40:05;;;;;;;6.15;4.30;;;;;;;2.46;100.00;100790.52;232805;1203;103207;-74
2021/04/14 20:45:08;;;;;;;6.88;5.15;;;;;;;2.39;100.00;100789.63;232919;1203;103596;-71
2021/04/14 20:50:10;;;;;;;5.35;4.85;;;;;;;2.39;100.00;100790.52;233239;1203;103589;-71
2021/04/14 20:55:12;;;;;;;5.28;4.60;;;;;;;2.46;100.00;100779.98;232919;1202;103136;-72
2021/04/14 21:00:15;;;;;;;7.07;5.33;;;;;;;2.44;100.00;100773.84;232810;1203;103219;-71
2021/04/14 21:05:17;;;;;;;5.17;4.63;;;;;;;2.32;100.00;100777.34;232843;1203;103213;-72
2021/04/14 21:10:21;;;;;;;8.37;5.27;;;;;;;2.43;100.00;100769.45;232783;1203;103323;-72
2021/04/14 21:15:24;;;;;;;8.73;5.33;;;;;;;2.46;100.00;100769.47;232767;1202;103194;-72
2021/04/14 21:20:30;;;;;;;8.17;6.73;;;;;;;2.45;100.00;100765.08;232807;1203;103188;-71
2021/04/14 21:25:32;;;;;;;6.18;5.58;;;;;;;2.43;100.00;100756.30;232799;1201;103146;-72
2021/04/14 21:30:36;;;;;;;6.95;5.25;;;;;;;2.39;100.00;100745.79;232924;1203;103200;-72
2021/04/14 21:35:37;;;;;;;6.83;6.10;;;;;;;2.39;100.00;100742.27;232759;1201;103616;-72
2021/04/14 21:40:39;;;;;;;7.33;5.68;;;;;;;2.34;100.00;100734.36;232823;1202;103207;-71
2021/04/14 21:45:41;;;;;;;7.00;5.60;;;;;;;2.46;100.00;100732.63;232782;1203;103216;-72
2021/04/14 21:50:43;;;;;;;8.13;5.90;;;;;;;2.55;100.00;100727.32;232822;1203;103348;-72
2021/04/14 21:55:45;;;;;;;6.77;5.73;;;;;;;2.54;100.00;100725.56;232898;1202;103175;-72
2021/04/14 22:00:49;;;;;;;6.10;4.75;;;;;;;2.59;100.00;100717.66;232992;1203;103136;-73
2021/04/14 22:05:51;;;;;;;8.70;5.05;;;;;;;2.62;100.00;100715.91;233253;1203;103198;-74
2021/04/14 22:10:54;;;;;;;6.50;5.00;;;;;;;2.62;100.00;100718.53;233594;1203;103114;-74
2021/04/14 22:15:56;;;;;;;5.98;3.98;;;;;;;2.67;100.00;100706.27;233678;1202;103217;-72
2021/04/14 22:21:00;;;;;;;5.50;3.80;;;;;;;2.74;100.00;100696.58;233649;1203;103139;-72
2021/04/14 22:26:06;;;;;;;5.70;4.23;;;;;;;2.72;100.00;100708.86;233663;1203;103248;-72
2021/04/14 22:31:16;;;;;;;4.33;3.33;;;;;;;2.71;100.00;100700.09;232891;1203;103123;-71
2021/04/14 22:36:18;;;;;;;7.55;4.10;;;;;;;2.80;100.00;100703.59;232900;1203;103173;-72
2021/04/14 22:41:23;;;;;;;4.80;3.80;;;;;;;2.79;100.00;100700.06;232770;1203;103137;-71
2021/04/14 22:46:25;;;;;;;5.10;3.80;;;;;;;2.78;100.00;100693.08;234830;1203;103210;-72
2021/04/14 22:51:26;;;;;;;5.47;4.03;;;;;;;2.82;100.00;100694.80;232859;1203;103214;-73
2021/04/14 22:56:27;;;;;;;5.10;4.15;;;;;;;2.80;100.00;100693.06;232832;1203;103196;-71
2021/04/14 23:01:29;;;;;;;4.10;3.80;;;;;;;2.73;100.00;100691.33;232888;1203;103262;-71
2021/04/14 23:06:30;;;;;;;3.10;2.80;;;;;;;2.67;100.00;100689.58;232885;1203;103593;-71
2021/04/14 23:11:33;;;;;;;3.83;3.53;;;;;;;2.70;100.00;100679.91;233419;1203;103172;-72